Alexandria Bay, New York
Current Conditions -  °F | °C
As of 10:58 AM on Friday 31 Oct 2014 (Local Time) from KGTB Reporting Station
Overcast Overcast  
Wind Chill: 36°   Ceiling: 5500
Heat Index: 40°   Visibility: 10mi
Dew Point: 37°   Wind: 5mph
Humidity: 89%   Direction: 110°ESE
Pressure: 30.01"   Gusts: NA
Location:  44.34°N, 75.92°W
Report Text: KGTB 311458Z AUTO 11004KT 10SM OVC055 04/03 A3001 RMK AO2 SLP169 T00430026 50001
Loading
Personal Weather Stations






























Interactive Weather Map
Tropical Storm Tracking
New forecast layout! Learn more

10-Day Weather Forecast

Advertisements
Track Severe Weather on mobile